Time;durP1;ratioP1;P1;durP2;ratioP2;P2;SDS_P1;SDS_P2;PMS_P1;PMS_P2;Temp;Humidity;BMP_temperature;BMP_pressure;BME280_temperature;BME280_humidity;BME280_pressure;Samples;Min_cycle;Max_cycle;Signal;HPM_P1;HPM_P2
2023/04/10 00:00:47;;;;;;;15.52;9.00;;;;;;;-143.48;56.45;118439.88;5057032;28;20021;-68
2023/04/10 00:03:13;;;;;;;14.20;8.55;;;;;;;-143.48;56.75;118439.88;5057070;28;20025;-68
2023/04/10 00:05:38;;;;;;;14.63;8.60;;;;;;;-143.48;56.92;118439.88;5056931;28;20507;-67
2023/04/10 00:08:03;;;;;;;15.27;9.07;;;;;;;-143.48;56.84;118439.88;5057160;28;20104;-69
2023/04/10 00:10:30;;;;;;;15.52;8.73;;;;;;;-143.48;56.97;118439.88;5057300;28;20032;-69
2023/04/10 00:12:56;;;;;;;15.63;8.40;;;;;;;-143.48;57.11;118439.88;5056689;28;20028;-69
2023/04/10 00:15:21;;;;;;;18.35;8.10;;;;;;;-143.48;57.50;118439.88;5056937;28;20380;-69
2023/04/10 00:17:49;;;;;;;14.75;8.68;;;;;;;-143.48;57.21;118439.88;5057049;28;20036;-69
2023/04/10 00:20:15;;;;;;;15.65;8.40;;;;;;;-143.48;58.08;118439.88;5039121;28;20082;-69
2023/04/10 00:22:41;;;;;;;14.00;8.82;;;;;;;-143.48;57.56;118439.88;5057068;28;20032;-68
2023/04/10 00:25:07;;;;;;;14.52;8.15;;;;;;;-143.48;57.85;118439.88;5057262;28;20488;-68
2023/04/10 00:27:32;;;;;;;12.43;7.82;;;;;;;-143.48;57.93;118439.88;5057351;28;20024;-68
2023/04/10 00:29:57;;;;;;;15.85;8.35;;;;;;;-143.48;57.78;118439.88;5057680;28;20025;-68
2023/04/10 00:32:23;;;;;;;12.93;8.50;;;;;;;-143.48;58.07;118439.88;5039921;28;20075;-68
2023/04/10 00:34:49;;;;;;;15.73;8.93;;;;;;;-143.48;58.35;118439.88;5061399;28;20017;-70
2023/04/10 00:37:14;;;;;;;13.27;8.07;;;;;;;-143.48;58.56;118439.88;5049718;28;20021;-68
2023/04/10 00:39:40;;;;;;;13.20;8.32;;;;;;;-143.48;58.55;118439.88;5068483;28;20032;-69
2023/04/10 00:42:08;;;;;;;12.93;8.20;;;;;;;-143.48;58.41;118439.88;5067780;28;20053;-69
2023/04/10 00:44:36;;;;;;;12.93;8.30;;;;;;;-143.48;58.65;118439.88;5051224;28;20049;-68
2023/04/10 00:47:03;;;;;;;14.00;7.90;;;;;;;-143.48;58.63;118439.88;5050830;28;20021;-68
2023/04/10 00:49:29;;;;;;;13.88;8.40;;;;;;;-143.48;59.02;118439.88;5068836;28;20028;-68
2023/04/10 00:51:55;;;;;;;13.93;8.52;;;;;;;-143.48;58.90;118439.88;5069472;28;20025;-69
2023/04/10 00:54:20;;;;;;;20.40;8.68;;;;;;;-143.48;59.60;118439.88;5068732;28;20468;-68
2023/04/10 00:56:46;;;;;;;12.75;8.50;;;;;;;-143.48;59.41;118439.88;5068017;28;20021;-68
2023/04/10 00:59:12;;;;;;;13.02;8.23;;;;;;;-143.48;59.55;118439.88;5070628;28;20021;-69
2023/04/10 01:01:37;;;;;;;14.38;8.25;;;;;;;-143.48;59.81;118439.88;5057290;28;20117;-70
2023/04/10 01:04:03;;;;;;;14.27;8.70;;;;;;;-143.48;59.64;118439.88;5056598;28;20013;-69
2023/04/10 01:06:46;;;;;;;15.57;8.70;;;;;;;-143.48;60.14;118439.88;5074846;28;20036;-70
2023/04/10 01:09:40;;;;;;;13.05;8.18;;;;;;;-143.48;60.29;118439.88;5074382;28;20040;-70
2023/04/10 01:12:08;;;;;;;13.63;8.57;;;;;;;-143.48;60.19;118439.88;5074727;28;20088;-69
2023/04/10 01:14:48;;;;;;;13.55;8.25;;;;;;;-143.48;60.55;118439.88;5074495;28;20021;-69
2023/04/10 01:17:30;;;;;;;15.32;8.95;;;;;;;-143.48;60.75;118439.88;5074124;28;20025;-70
2023/04/10 01:20:08;;;;;;;14.38;7.95;;;;;;;-143.48;60.79;118439.88;5061699;28;20084;-69
2023/04/10 01:23:04;;;;;;;13.45;8.20;;;;;;;-143.48;61.21;118439.88;5060927;28;20020;-70
2023/04/10 01:25:52;;;;;;;15.52;8.50;;;;;;;-143.48;61.20;118439.88;5060258;28;20043;-69
2023/04/10 01:28:17;;;;;;;13.88;8.32;;;;;;;-143.48;60.87;118439.88;5058683;28;20367;-68
2023/04/10 01:30:46;;;;;;;13.15;8.23;;;;;;;-143.48;61.34;118439.88;5058436;28;20099;-68
2023/04/10 01:33:15;;;;;;;12.70;8.20;;;;;;;-143.48;61.27;118439.88;5057968;28;20027;-69
2023/04/10 01:35:42;;;;;;;12.95;8.15;;;;;;;-143.48;61.08;118439.88;5057264;28;20017;-69
2023/04/10 01:38:10;;;;;;;14.35;8.63;;;;;;;-143.48;61.11;118439.88;5056868;28;20115;-69
2023/04/10 01:40:38;;;;;;;12.77;7.88;;;;;;;-143.48;61.36;118439.88;5056273;28;20316;-69
2023/04/10 01:43:06;;;;;;;13.00;8.13;;;;;;;-143.48;61.60;118439.88;5038063;28;20049;-69
2023/04/10 01:45:32;;;;;;;12.35;8.15;;;;;;;-143.48;61.71;118439.88;5055774;28;20025;-69
2023/04/10 01:47:58;;;;;;;12.82;8.45;;;;;;;-143.48;61.38;118439.88;5037664;28;20409;-69
2023/04/10 01:50:26;;;;;;;12.43;7.57;;;;;;;-143.48;61.51;118439.88;5055714;28;20109;-69
2023/04/10 01:52:53;;;;;;;13.10;8.27;;;;;;;-143.48;61.54;118439.88;5055114;28;20475;-69
2023/04/10 01:55:19;;;;;;;13.68;7.88;;;;;;;-143.48;61.51;118439.88;5055403;28;20028;-69
2023/04/10 01:57:49;;;;;;;14.82;7.78;;;;;;;-143.48;61.32;118439.88;5037318;28;20469;-69
2023/04/10 02:00:15;;;;;;;12.50;8.13;;;;;;;-143.48;61.47;118439.88;5037001;28;20028;-68
2023/04/10 02:02:42;;;;;;;13.02;7.78;;;;;;;-143.48;61.93;118439.88;5054241;28;20455;-69
2023/04/10 02:05:09;;;;;;;12.65;7.60;;;;;;;-143.48;62.02;118439.88;5037697;28;20024;-69
2023/04/10 02:08:00;;;;;;;12.57;7.90;;;;;;;-143.48;61.48;118439.88;5036858;28;20051;-67
2023/04/10 02:10:44;;;;;;;12.32;7.60;;;;;;;-143.48;61.45;118439.88;5054933;28;20068;-69
2023/04/10 02:13:13;;;;;;;17.45;7.28;;;;;;;-143.48;61.81;118439.88;5054814;28;20456;-68
2023/04/10 02:15:42;;;;;;;11.90;7.40;;;;;;;-143.48;61.65;118439.88;5054512;28;20021;-68
2023/04/10 02:18:09;;;;;;;12.15;7.60;;;;;;;-143.48;61.88;118439.88;5054467;28;20021;-68
2023/04/10 02:20:36;;;;;;;11.63;7.50;;;;;;;-143.48;62.26;118439.88;5054670;28;20024;-69
2023/04/10 02:23:04;;;;;;;11.63;7.35;;;;;;;-143.48;62.28;118439.88;5036669;28;20060;-68
2023/04/10 02:25:33;;;;;;;13.52;8.23;;;;;;;-143.48;62.22;118439.88;5054296;28;20035;-69
2023/04/10 02:28:06;;;;;;;12.98;7.40;;;;;;;-143.48;62.17;118439.88;5036720;28;20017;-69
2023/04/10 02:30:32;;;;;;;13.57;7.80;;;;;;;-143.48;62.22;118439.88;5054378;28;20076;-69
2023/04/10 02:32:57;;;;;;;11.85;7.05;;;;;;;-143.48;62.33;118439.88;5036485;28;20557;-69
2023/04/10 02:35:23;;;;;;;15.38;7.70;;;;;;;-143.48;62.45;118439.88;5054623;28;20028;-69
2023/04/10 02:37:49;;;;;;;12.35;7.53;;;;;;;-143.48;62.52;118439.88;5036844;28;20400;-69
2023/04/10 02:40:15;;;;;;;15.80;7.13;;;;;;;-143.48;62.54;118439.88;5037993;28;20025;-68
2023/04/10 02:42:41;;;;;;;12.00;7.38;;;;;;;-143.48;62.23;118439.88;5059827;28;20048;-68
2023/04/10 02:45:07;;;;;;;11.60;7.22;;;;;;;-143.48;62.38;118439.88;5060763;28;20033;-69
2023/04/10 02:47:33;;;;;;;14.82;7.63;;;;;;;-143.48;62.25;118439.88;5059862;28;20025;-70
2023/04/10 02:49:58;;;;;;;12.52;7.05;;;;;;;-143.48;62.34;118439.88;5060184;28;20067;-69
2023/04/10 02:52:23;;;;;;;14.70;7.40;;;;;;;-143.48;62.16;118439.88;5061379;28;20044;-69
2023/04/10 02:54:48;;;;;;;10.90;7.10;;;;;;;-143.48;62.17;118439.88;5056173;28;20476;-67
2023/04/10 02:57:15;;;;;;;12.70;8.02;;;;;;;-143.48;62.25;118439.88;5054743;28;20051;-69
2023/04/10 02:59:40;;;;;;;15.35;7.20;;;;;;;-143.48;62.14;118439.88;5054280;28;20029;-69
2023/04/10 03:02:06;;;;;;;13.15;7.40;;;;;;;-143.48;61.88;118439.88;5054140;28;20117;-69
2023/04/10 03:04:31;;;;;;;11.65;7.22;;;;;;;-143.48;61.89;118439.88;5054064;28;20025;-69
2023/04/10 03:06:56;;;;;;;15.75;7.45;;;;;;;-143.48;61.90;118439.88;5053774;28;20056;-69
2023/04/10 03:09:22;;;;;;;10.88;7.25;;;;;;;-143.48;61.96;118439.88;5035713;28;20016;-69
2023/04/10 03:11:47;;;;;;;10.45;6.93;;;;;;;-143.48;62.16;118439.88;5035985;28;20032;-69
2023/04/10 03:14:12;;;;;;;11.32;7.00;;;;;;;-143.48;61.89;118439.88;5053649;28;20036;-69
2023/04/10 03:16:38;;;;;;;12.60;7.38;;;;;;;-143.48;62.11;118439.88;5035778;28;20443;-69
2023/04/10 03:19:03;;;;;;;10.13;6.72;;;;;;;-143.48;62.21;118439.88;5053067;28;20045;-69
2023/04/10 03:21:29;;;;;;;11.15;7.18;;;;;;;-143.48;61.90;118439.88;5035062;28;20032;-69
2023/04/10 03:23:54;;;;;;;10.57;6.93;;;;;;;-143.48;61.77;118439.88;5053432;28;20025;-68
2023/04/10 03:26:20;;;;;;;10.35;6.65;;;;;;;-143.48;62.27;118439.88;5053171;28;20032;-68
2023/04/10 03:28:45;;;;;;;9.93;6.85;;;;;;;-143.48;62.15;118439.88;5053318;28;20021;-69
2023/04/10 03:31:11;;;;;;;10.55;7.05;;;;;;;-143.48;62.14;118439.88;5053503;28;20025;-69
2023/04/10 03:33:36;;;;;;;10.90;7.00;;;;;;;-143.48;61.76;118439.88;5053332;28;20102;-69
2023/04/10 03:36:03;;;;;;;11.43;6.88;;;;;;;-143.48;61.94;118439.88;5053275;28;20025;-69
2023/04/10 03:38:28;;;;;;;12.82;7.10;;;;;;;-143.48;61.66;118439.88;5053583;28;20056;-69
2023/04/10 03:40:54;;;;;;;11.65;6.88;;;;;;;-143.48;61.83;118439.88;5052885;28;20051;-68
2023/04/10 03:43:19;;;;;;;10.75;6.82;;;;;;;-143.48;61.96;118439.88;5035214;28;20041;-69
2023/04/10 03:45:46;;;;;;;11.10;7.13;;;;;;;-143.48;61.61;118439.88;5053209;28;20479;-69
2023/04/10 03:48:11;;;;;;;11.85;7.10;;;;;;;-143.48;61.90;118439.88;5053336;28;20032;-69
2023/04/10 03:50:36;;;;;;;12.73;6.95;;;;;;;-143.48;61.85;118439.88;5053171;28;20103;-69
2023/04/10 03:53:02;;;;;;;11.95;6.85;;;;;;;-143.48;61.61;118439.88;5053147;28;20036;-68
2023/04/10 03:55:27;;;;;;;11.48;7.15;;;;;;;-143.48;61.74;118439.88;5053224;28;20362;-69
2023/04/10 03:57:52;;;;;;;10.98;6.88;;;;;;;-143.48;61.58;118439.88;5053256;28;20090;-69
2023/04/10 04:00:19;;;;;;;10.95;6.78;;;;;;;-143.48;61.65;118439.88;5053113;28;20032;-69
2023/04/10 04:02:44;;;;;;;11.77;7.03;;;;;;;-143.48;61.70;118439.88;5052911;28;20091;-68
2023/04/10 04:05:10;;;;;;;10.95;6.70;;;;;;;-143.48;62.12;118439.88;5053089;28;20383;-68
2023/04/10 04:07:35;;;;;;;9.75;6.75;;;;;;;-143.48;61.74;118439.88;5035199;28;20075;-68
2023/04/10 04:10:01;;;;;;;10.13;6.78;;;;;;;-143.48;61.89;118439.88;5035013;28;20021;-68
2023/04/10 04:12:26;;;;;;;9.50;6.50;;;;;;;-143.48;62.21;118439.88;5052830;28;20033;-69
2023/04/10 04:14:52;;;;;;;10.95;7.07;;;;;;;-143.48;62.24;118439.88;5053200;28;20025;-69
2023/04/10 04:17:17;;;;;;;10.70;6.75;;;;;;;-143.48;62.21;118439.88;5052860;28;20025;-69
2023/04/10 04:19:43;;;;;;;10.80;6.70;;;;;;;-143.48;62.21;118439.88;5052885;28;20029;-68
2023/04/10 04:22:08;;;;;;;10.23;6.90;;;;;;;-143.48;62.04;118439.88;5052770;28;20400;-69
2023/04/10 04:24:34;;;;;;;11.68;6.78;;;;;;;-143.48;62.12;118439.88;5053239;28;20025;-68
2023/04/10 04:27:00;;;;;;;11.05;7.00;;;;;;;-143.48;62.62;118439.88;5022217;28;20099;-68
2023/04/10 04:29:25;;;;;;;10.73;6.80;;;;;;;-143.48;62.53;118439.88;5056739;28;20029;-69
2023/04/10 04:31:51;;;;;;;11.35;7.20;;;;;;;-143.48;62.38;118439.88;5056526;28;20029;-69
2023/04/10 04:34:16;;;;;;;10.80;6.75;;;;;;;-143.48;62.66;118439.88;5056365;28;20074;-69
2023/04/10 04:36:41;;;;;;;9.50;6.65;;;;;;;-143.48;62.16;118439.88;5056382;28;20385;-69
2023/04/10 04:39:07;;;;;;;14.60;7.43;;;;;;;-143.48;62.62;118439.88;5056329;28;20052;-69
2023/04/10 04:41:32;;;;;;;11.13;7.18;;;;;;;-143.48;62.31;118439.88;5056227;28;20131;-69
2023/04/10 04:43:59;;;;;;;9.65;6.72;;;;;;;-143.48;62.66;118439.88;5056519;28;20115;-68
2023/04/10 04:46:25;;;;;;;12.07;7.05;;;;;;;-143.48;63.18;118439.88;5056369;28;20028;-69
2023/04/10 04:48:50;;;;;;;10.00;6.78;;;;;;;-143.48;63.27;118439.88;5056507;28;20020;-69
2023/04/10 04:51:15;;;;;;;11.00;7.30;;;;;;;-143.48;63.54;118439.88;5038258;28;20503;-69
2023/04/10 04:53:41;;;;;;;10.70;6.95;;;;;;;-143.48;63.55;118439.88;5056243;28;20091;-70
2023/04/10 04:56:06;;;;;;;10.40;7.20;;;;;;;-143.48;63.49;118439.88;5056060;28;20480;-70
2023/04/10 04:58:32;;;;;;;9.85;6.80;;;;;;;-143.48;63.61;118439.88;5056087;28;20033;-69
2023/04/10 05:00:58;;;;;;;8.98;6.13;;;;;;;-143.48;63.61;118439.88;5055889;28;20028;-69
2023/04/10 05:03:23;;;;;;;11.20;6.85;;;;;;;-143.48;63.43;118439.88;5055883;28;20035;-68
2023/04/10 05:05:49;;;;;;;11.73;6.85;;;;;;;-143.48;64.10;118439.88;5055848;28;20025;-69
2023/04/10 05:08:14;;;;;;;12.55;6.88;;;;;;;-143.48;64.27;118439.88;5055708;28;20558;-68
2023/04/10 05:10:40;;;;;;;11.85;7.50;;;;;;;-143.48;63.67;118439.88;5055831;28;20025;-69
2023/04/10 05:13:06;;;;;;;12.02;7.32;;;;;;;-143.48;64.16;118439.88;5055834;28;20520;-68
2023/04/10 05:15:32;;;;;;;14.90;7.72;;;;;;;-143.48;63.74;118439.88;5055624;28;20063;-69
2023/04/10 05:17:57;;;;;;;11.73;7.30;;;;;;;-143.48;63.77;118439.88;5055336;28;20515;-70
2023/04/10 05:20:22;;;;;;;11.10;7.22;;;;;;;-143.48;64.56;118439.88;5055525;28;20033;-69
2023/04/10 05:22:48;;;;;;;11.02;7.35;;;;;;;-143.48;64.18;118439.88;5055286;28;20068;-69
2023/04/10 05:25:13;;;;;;;11.60;7.53;;;;;;;-143.48;64.04;118439.88;5055516;28;20025;-69
2023/04/10 05:27:38;;;;;;;10.30;7.30;;;;;;;-143.48;64.20;118439.88;5037438;28;20028;-69
2023/04/10 05:30:04;;;;;;;11.65;7.18;;;;;;;-143.48;63.69;118439.88;5055550;28;20029;-69
2023/04/10 05:32:29;;;;;;;11.27;7.57;;;;;;;-143.48;63.54;118439.88;5037751;28;20056;-69
2023/04/10 05:34:55;;;;;;;11.45;7.68;;;;;;;-143.48;63.64;118439.88;5055315;28;20021;-68
2023/04/10 05:37:20;;;;;;;10.63;7.18;;;;;;;-143.48;63.30;118439.88;5054087;28;20037;-68
2023/04/10 05:39:45;;;;;;;10.60;7.13;;;;;;;-143.48;62.89;118439.88;5037257;28;20028;-69
2023/04/10 05:42:10;;;;;;;10.05;7.20;;;;;;;-143.48;63.07;118439.88;5055342;28;20052;-69
2023/04/10 05:44:36;;;;;;;11.50;7.03;;;;;;;-143.48;62.28;118439.88;5054971;28;20467;-67
2023/04/10 05:47:01;;;;;;;11.68;7.50;;;;;;;-143.48;62.29;118439.88;5055024;28;20499;-68
2023/04/10 05:49:27;;;;;;;11.18;7.05;;;;;;;-143.48;62.34;118439.88;5055036;28;20025;-68
2023/04/10 05:51:52;;;;;;;11.48;7.53;;;;;;;-143.48;61.97;118439.88;5054950;28;20025;-68
2023/04/10 05:54:18;;;;;;;11.27;7.15;;;;;;;-143.48;61.95;118439.88;5055222;28;20029;-69
2023/04/10 05:56:43;;;;;;;14.65;7.07;;;;;;;-143.48;61.07;118439.88;5056137;28;20021;-69
2023/04/10 05:59:09;;;;;;;13.23;7.60;;;;;;;-143.48;61.44;118439.88;5055003;28;20033;-69
2023/04/10 06:01:34;;;;;;;11.70;7.35;;;;;;;-143.48;61.21;118439.88;5037130;28;20028;-69
2023/04/10 06:04:01;;;;;;;11.20;7.50;;;;;;;-143.48;61.26;118439.88;5059942;28;20063;-68
2023/04/10 06:06:26;;;;;;;13.48;7.82;;;;;;;-143.48;60.38;118439.88;5060940;28;20047;-68
2023/04/10 06:08:51;;;;;;;10.50;7.00;;;;;;;-143.48;60.16;118439.88;5055138;28;20489;-69
2023/04/10 06:11:17;;;;;;;14.65;7.20;;;;;;;-143.48;59.71;118439.88;5037310;28;20087;-69
2023/04/10 06:13:42;;;;;;;12.35;7.30;;;;;;;-143.48;59.89;118439.88;5056653;28;20028;-69
2023/04/10 06:16:08;;;;;;;13.25;7.28;;;;;;;-143.48;59.32;118439.88;5068780;28;20033;-69
2023/04/10 06:18:34;;;;;;;9.88;7.22;;;;;;;-143.48;59.41;118439.88;5054557;28;20032;-68
2023/04/10 06:21:00;;;;;;;15.27;7.18;;;;;;;-143.48;58.82;118439.88;5054721;28;20021;-68
2023/04/10 06:23:29;;;;;;;11.95;7.00;;;;;;;-143.48;58.33;118439.88;5054328;28;20021;-69
2023/04/10 06:25:55;;;;;;;15.35;7.38;;;;;;;-143.48;58.23;118439.88;5053202;28;20031;-69
2023/04/10 06:28:20;;;;;;;12.32;7.78;;;;;;;-143.48;58.18;118439.88;5053973;28;20025;-67
2023/04/10 06:30:45;;;;;;;10.85;6.60;;;;;;;-143.48;57.51;118439.88;5054274;28;20021;-68
2023/04/10 06:33:11;;;;;;;10.15;6.68;;;;;;;-143.48;57.45;118439.88;5054221;28;20061;-70
2023/04/10 06:35:39;;;;;;;11.93;6.70;;;;;;;-143.48;56.80;118439.88;5054053;28;20048;-67
2023/04/10 06:38:05;;;;;;;10.10;6.95;;;;;;;-143.48;56.54;118439.88;5054105;28;20075;-68
2023/04/10 06:40:32;;;;;;;10.85;6.88;;;;;;;-143.48;56.21;118439.88;5053974;28;20029;-68
2023/04/10 06:42:58;;;;;;;9.30;6.60;;;;;;;-143.48;55.96;118439.88;5053012;28;20076;-69
2023/04/10 06:45:23;;;;;;;9.90;6.65;;;;;;;-143.48;55.89;118439.88;5053279;28;20056;-69
2023/04/10 06:47:48;;;;;;;11.15;6.75;;;;;;;-143.48;55.72;118439.88;5034756;28;20029;-69
2023/04/10 06:50:14;;;;;;;10.48;7.13;;;;;;;-143.48;55.46;118439.88;5052796;28;20021;-69
2023/04/10 06:52:42;;;;;;;11.27;6.70;;;;;;;-143.48;55.01;118439.88;5053001;28;20476;-69
2023/04/10 06:55:08;;;;;;;11.10;7.30;;;;;;;-143.48;54.93;118439.88;5035196;28;20017;-68
2023/04/10 06:57:33;;;;;;;13.00;6.72;;;;;;;-143.48;54.76;118439.88;5052907;28;20122;-69
2023/04/10 06:59:58;;;;;;;9.90;6.80;;;;;;;-143.48;54.52;118439.88;5035032;28;20021;-69
2023/04/10 07:02:24;;;;;;;10.55;6.95;;;;;;;-143.48;54.31;118439.88;5052911;28;20095;-69
2023/04/10 07:04:52;;;;;;;10.40;6.82;;;;;;;-143.48;53.78;118439.88;5034344;28;20033;-68
2023/04/10 07:07:20;;;;;;;10.32;6.90;;;;;;;-143.48;53.25;118439.88;5052768;28;20036;-68
2023/04/10 07:09:46;;;;;;;9.77;6.80;;;;;;;-143.48;53.22;118439.88;5035407;28;20063;-69
2023/04/10 07:12:11;;;;;;;9.88;6.75;;;;;;;-143.48;52.73;118439.88;5052668;28;20079;-69
2023/04/10 07:14:36;;;;;;;9.55;6.80;;;;;;;-143.48;52.29;118439.88;5052780;28;20029;-68
2023/04/10 07:17:02;;;;;;;9.93;6.57;;;;;;;-143.48;51.77;118439.88;5052627;28;20515;-68
2023/04/10 07:19:27;;;;;;;10.32;7.28;;;;;;;-143.48;51.11;118439.88;5052662;28;20051;-69
2023/04/10 07:21:52;;;;;;;10.75;7.20;;;;;;;-143.48;50.57;118439.88;5034813;28;20040;-69
2023/04/10 07:24:18;;;;;;;10.35;7.00;;;;;;;-143.48;50.09;118439.88;5034713;28;20029;-69
2023/04/10 07:26:46;;;;;;;10.13;6.90;;;;;;;-143.48;50.19;118439.88;5052549;28;20028;-69
2023/04/10 07:29:13;;;;;;;9.80;7.20;;;;;;;-143.48;49.21;118439.88;5034263;28;20040;-67
2023/04/10 07:31:38;;;;;;;10.48;6.95;;;;;;;-143.48;47.87;118439.88;5052391;28;20060;-69
2023/04/10 07:34:04;;;;;;;10.75;7.20;;;;;;;-143.48;48.14;118439.88;5056837;28;20472;-68
2023/04/10 07:36:29;;;;;;;9.10;6.88;;;;;;;-143.48;47.34;118439.88;5052362;28;20060;-68
2023/04/10 07:38:55;;;;;;;9.63;6.80;;;;;;;-143.48;47.33;118439.88;5052852;28;20029;-68
2023/04/10 07:41:21;;;;;;;8.93;6.78;;;;;;;-143.48;46.51;118439.88;5014761;28;1085784;-68
2023/04/10 07:43:46;;;;;;;9.93;6.93;;;;;;;-143.48;46.41;118439.88;5053129;28;20059;-68
2023/04/10 07:46:11;;;;;;;9.35;6.80;;;;;;;-143.48;46.87;118439.88;5053169;28;20029;-68
2023/04/10 07:48:37;;;;;;;10.55;7.40;;;;;;;-143.48;47.09;118439.88;5053119;28;20559;-68
2023/04/10 07:51:02;;;;;;;10.02;6.75;;;;;;;-143.48;47.02;118439.88;5053239;28;20107;-67
2023/04/10 07:53:28;;;;;;;9.65;6.65;;;;;;;-143.48;47.12;118439.88;5035000;28;20032;-69
2023/04/10 07:55:53;;;;;;;9.50;6.88;;;;;;;-143.48;47.14;118439.88;5052929;28;20055;-69
2023/04/10 07:58:18;;;;;;;11.43;6.60;;;;;;;-143.48;47.77;118439.88;5053039;28;20499;-69
2023/04/10 08:00:44;;;;;;;9.80;6.35;;;;;;;-143.48;47.71;118439.88;5054951;28;20021;-68
2023/04/10 08:03:11;;;;;;;8.95;6.47;;;;;;;-143.48;48.38;118439.88;5039150;28;20021;-68
2023/04/10 08:05:37;;;;;;;8.60;6.30;;;;;;;-143.48;48.12;118439.88;5056766;28;20032;-69
2023/04/10 08:08:02;;;;;;;10.20;6.40;;;;;;;-143.48;47.57;118439.88;5056815;28;20037;-68
2023/04/10 08:10:27;;;;;;;10.45;6.70;;;;;;;-143.48;46.66;118439.88;5060772;28;20122;-68
2023/04/10 08:12:52;;;;;;;11.02;6.75;;;;;;;-143.48;46.05;118439.88;5056825;28;20032;-68
2023/04/10 08:15:18;;;;;;;10.73;6.25;;;;;;;-143.48;45.38;118439.88;5057170;28;20017;-67
2023/04/10 08:17:43;;;;;;;9.40;6.50;;;;;;;-143.48;45.75;118439.88;5058992;28;20025;-68
2023/04/10 08:20:09;;;;;;;10.98;7.10;;;;;;;-143.48;46.02;118439.88;5059648;28;20052;-68
2023/04/10 08:22:35;;;;;;;10.85;6.90;;;;;;;-143.48;46.45;118439.88;5041081;28;20029;-70
2023/04/10 08:25:00;;;;;;;10.18;6.63;;;;;;;-143.48;46.26;118439.88;5039947;28;20090;-69
2023/04/10 08:27:27;;;;;;;9.25;6.63;;;;;;;-143.48;47.20;118439.88;5057543;28;20056;-68
2023/04/10 08:29:52;;;;;;;10.38;6.60;;;;;;;-143.48;47.02;118439.88;5057717;28;20053;-68
2023/04/10 08:32:17;;;;;;;10.18;6.70;;;;;;;-143.48;47.09;118439.88;5057603;28;20044;-68
2023/04/10 08:34:43;;;;;;;9.10;6.07;;;;;;;-143.48;46.92;118439.88;5056826;28;20025;-69
2023/04/10 08:37:11;;;;;;;10.57;6.50;;;;;;;-143.48;47.33;118439.88;5056927;28;20074;-69
2023/04/10 08:39:36;;;;;;;9.05;6.30;;;;;;;-143.48;47.63;118439.88;5038317;28;20025;-68
2023/04/10 08:42:02;;;;;;;10.07;6.22;;;;;;;-143.48;48.01;118439.88;5055835;28;20061;-68
2023/04/10 08:44:27;;;;;;;9.48;6.60;;;;;;;-143.48;48.05;118439.88;5056098;28;20043;-68
2023/04/10 08:46:57;;;;;;;11.52;7.43;;;;;;;-143.48;48.41;118439.88;5056059;28;20033;-69
2023/04/10 08:49:28;;;;;;;11.68;6.65;;;;;;;-143.48;48.67;118439.88;5055949;28;20100;-68
2023/04/10 08:52:03;;;;;;;9.68;6.72;;;;;;;-143.48;48.52;118439.88;5056224;28;20031;-69
2023/04/10 08:54:32;;;;;;;9.73;6.82;;;;;;;-143.48;48.66;118439.88;5054531;28;20037;-68
2023/04/10 08:57:01;;;;;;;10.98;6.90;;;;;;;-143.48;48.99;118439.88;5056144;28;20017;-68
2023/04/10 08:59:28;;;;;;;11.73;6.65;;;;;;;-143.48;48.97;118439.88;5055829;28;20021;-69
2023/04/10 09:01:54;;;;;;;12.20;7.07;;;;;;;-143.48;49.13;118439.88;5055965;28;20385;-69
2023/04/10 09:04:20;;;;;;;9.43;6.28;;;;;;;-143.48;48.77;118439.88;5055735;28;20025;-70
2023/04/10 09:06:45;;;;;;;10.07;7.13;;;;;;;-143.48;48.92;118439.88;5055565;28;20036;-68
2023/04/10 09:09:11;;;;;;;10.98;7.07;;;;;;;-143.48;49.18;118439.88;5055653;28;20032;-68
2023/04/10 09:11:51;;;;;;;11.18;6.78;;;;;;;-143.48;49.49;118439.88;5055283;28;20029;-68
2023/04/10 09:14:25;;;;;;;11.27;6.60;;;;;;;-143.48;49.35;118439.88;5055680;28;20024;-68
2023/04/10 09:16:51;;;;;;;10.20;6.35;;;;;;;-143.48;49.90;118439.88;5055587;28;20041;-68
2023/04/10 09:19:30;;;;;;;11.63;6.97;;;;;;;-143.48;49.77;118439.88;5037429;28;20507;-68
2023/04/10 09:21:55;;;;;;;10.45;7.22;;;;;;;-143.48;50.04;118439.88;5055504;28;20369;-69
2023/04/10 09:24:22;;;;;;;12.15;6.90;;;;;;;-143.48;49.59;118439.88;5055520;28;20103;-68
2023/04/10 09:26:47;;;;;;;10.82;7.35;;;;;;;-143.48;49.72;118439.88;5055170;28;20111;-68
2023/04/10 09:29:13;;;;;;;10.45;7.57;;;;;;;-143.48;49.39;118439.88;5055184;28;20116;-67
2023/04/10 09:31:39;;;;;;;10.23;7.15;;;;;;;-143.48;49.72;118439.88;5055412;28;20035;-68
2023/04/10 09:34:17;;;;;;;10.90;7.60;;;;;;;-143.48;49.77;118439.88;5055082;28;20086;-69
2023/04/10 09:36:51;;;;;;;12.40;7.20;;;;;;;-143.48;49.46;118439.88;5055135;28;20021;-69
2023/04/10 09:39:17;;;;;;;9.90;6.90;;;;;;;-143.48;49.48;118439.88;5055053;28;20039;-68
2023/04/10 09:41:49;;;;;;;9.65;7.15;;;;;;;-143.48;49.17;118439.88;5054959;28;20504;-69
2023/04/10 09:44:18;;;;;;;11.90;6.93;;;;;;;-143.48;48.52;118439.88;5055028;28;20036;-68
2023/04/10 09:46:45;;;;;;;11.45;7.78;;;;;;;-143.48;48.77;118439.88;5054920;28;20021;-68
2023/04/10 09:49:10;;;;;;;13.23;7.25;;;;;;;-143.48;48.06;118439.88;5055606;28;20067;-69
2023/04/10 09:51:36;;;;;;;9.30;6.75;;;;;;;-143.48;48.41;118439.88;5055149;28;20029;-67
2023/04/10 09:54:02;;;;;;;11.75;7.00;;;;;;;-143.48;48.29;118439.88;5054703;28;20476;-68
2023/04/10 09:56:28;;;;;;;10.27;6.85;;;;;;;-143.48;48.17;118439.88;5054733;28;20025;-67
2023/04/10 09:58:58;;;;;;;9.93;6.97;;;;;;;-143.48;47.69;118439.88;5054904;28;20028;-68
2023/04/10 10:01:27;;;;;;;11.25;7.78;;;;;;;-143.48;47.96;118439.88;5054661;28;20071;-69
2023/04/10 10:04:00;;;;;;;9.93;6.93;;;;;;;-143.48;47.76;118439.88;5054658;28;20039;-68
2023/04/10 10:06:26;;;;;;;;;;;;;;;-143.48;48.02;118439.88;5054973;28;20404;-68
2023/04/10 10:08:52;;;;;;;10.38;7.22;;;;;;;-143.48;47.94;118439.88;5054344;28;19915;-68
2023/04/10 10:11:21;;;;;;;9.95;6.65;;;;;;;-143.48;47.61;118439.88;5036507;28;20021;-68
2023/04/10 10:13:57;;;;;;;8.13;6.30;;;;;;;-143.48;47.77;118439.88;5054535;28;20430;-68
2023/04/10 10:16:44;;;;;;;12.20;6.90;;;;;;;-143.48;48.26;118439.88;5054540;28;20028;-68
2023/04/10 10:19:23;;;;;;;10.73;6.88;;;;;;;-143.48;47.87;118439.88;5054126;28;20032;-67
2023/04/10 10:21:50;;;;;;;17.60;7.35;;;;;;;-143.48;47.94;118439.88;5054190;28;20115;-68
2023/04/10 10:24:19;;;;;;;10.40;6.80;;;;;;;-143.48;47.54;118439.88;5053529;28;20476;-67
2023/04/10 10:26:46;;;;;;;10.63;6.90;;;;;;;-143.48;47.08;118439.88;5054202;28;20045;-67
2023/04/10 10:29:14;;;;;;;8.98;6.60;;;;;;;-143.48;47.15;118439.88;5054928;28;20029;-67
2023/04/10 10:31:40;;;;;;;7.93;6.03;;;;;;;-143.48;46.76;118439.88;5035892;28;20025;-68
2023/04/10 10:34:08;;;;;;;11.63;6.53;;;;;;;-143.48;46.50;118439.88;5053256;28;20025;-69
2023/04/10 10:36:39;;;;;;;9.60;6.60;;;;;;;-143.48;46.76;118439.88;5019997;28;20480;-69
2023/04/10 10:39:26;;;;;;;9.73;6.78;;;;;;;-143.48;46.92;118439.88;5053857;28;20025;-67
2023/04/10 10:42:16;;;;;;;12.30;6.50;;;;;;;-143.48;46.84;118439.88;5053725;28;20103;-69
2023/04/10 10:45:08;;;;;;;10.38;6.60;;;;;;;-143.48;46.62;118439.88;5053903;28;20449;-68
2023/04/10 10:47:39;;;;;;;8.93;6.50;;;;;;;-143.48;46.31;118439.88;5053812;28;20029;-68
2023/04/10 10:50:05;;;;;;;9.13;6.55;;;;;;;-143.48;45.82;118439.88;5053723;28;20512;-68
2023/04/10 10:52:41;;;;;;;10.23;6.22;;;;;;;-143.48;45.58;118439.88;5053551;28;20339;-68
2023/04/10 10:55:26;;;;;;;10.60;6.43;;;;;;;-143.48;45.56;118439.88;5053741;28;20032;-68
2023/04/10 10:57:53;;;;;;;9.18;6.70;;;;;;;-143.48;45.13;118439.88;5053757;28;20032;-67
2023/04/10 11:00:51;;;;;;;10.82;6.15;;;;;;;-143.48;44.91;118439.88;5054459;28;20507;-68
2023/04/10 11:03:16;;;;;;;9.13;6.53;;;;;;;-143.48;45.22;118439.88;5045836;28;20039;-68